createdAt,value
2023-03-06T00:02:25.180Z,98060.31
2023-03-06T00:07:27.414Z,98118.34
2023-03-06T00:12:29.662Z,98103.91
2023-03-06T00:17:31.867Z,98128.84
2023-03-06T00:22:34.161Z,98064.84
2023-03-06T00:27:36.512Z,98080.91
2023-03-06T00:32:38.754Z,98047.19
2023-03-06T00:37:41.766Z,98053.31
2023-03-06T00:42:44.274Z,97989.28
2023-03-06T00:47:46.742Z,98008.75
2023-03-06T00:52:50.211Z,98053.22
2023-03-06T00:57:52.338Z,98051.78
2023-03-06T01:02:56.094Z,98052.88
2023-03-06T01:07:58.331Z,98073.41
2023-03-06T01:13:02.097Z,98060.59
2023-03-06T01:18:04.295Z,97990.78
2023-03-06T01:23:06.519Z,98031.78
2023-03-06T01:28:08.655Z,98064.63
2023-03-06T01:33:11.502Z,98012.25
2023-03-06T01:38:14.055Z,98037.22
2023-03-06T01:43:29.223Z,98013.25
2023-03-06T01:48:31.741Z,98059.09
2023-03-06T01:53:33.957Z,97968.50
2023-03-06T01:58:36.609Z,98017.25
2023-03-06T02:03:40.424Z,97956.84
2023-03-06T02:08:42.687Z,98058.94
2023-03-06T02:13:46.648Z,98006.41
2023-03-06T02:18:50.194Z,98015.31
2023-03-06T02:24:33.214Z,98018.44
2023-03-06T02:29:35.799Z,98064.22
2023-03-06T02:34:38.922Z,98074.78
2023-03-06T02:39:48.553Z,98016.09
2023-03-06T02:44:53.239Z,97990.59
2023-03-06T02:49:55.667Z,98001.75
2023-03-06T02:54:58.190Z,98012.50
2023-03-06T03:00:00.449Z,97987.00
2023-03-06T03:05:03.129Z,97950.78
2023-03-06T03:10:06.714Z,97951.22
2023-03-06T03:15:10.809Z,98019.47
2023-03-06T03:20:17.802Z,98010.34
2023-03-06T03:25:21.884Z,97924.16
2023-03-06T03:30:24.120Z,97911.44
2023-03-06T03:35:26.660Z,97924.13
2023-03-06T03:40:29.113Z,97948.72
2023-03-06T03:45:34.364Z,97883.91
2023-03-06T03:50:37.116Z,97966.63
2023-03-06T03:55:39.963Z,97901.94
2023-03-06T04:00:42.396Z,97864.03
2023-03-06T04:05:49.331Z,97847.41
2023-03-06T04:10:53.778Z,97923.78
2023-03-06T04:15:57.024Z,97951.16
2023-03-06T04:20:59.542Z,97973.47
2023-03-06T04:26:02.676Z,97964.75
2023-03-06T04:31:05.494Z,97926.63
2023-03-06T04:36:08.230Z,97890.81
2023-03-06T04:41:10.581Z,97923.78
2023-03-06T04:46:12.913Z,97957.56
2023-03-06T04:51:15.355Z,97949.81
2023-03-06T04:56:17.691Z,97889.09
2023-03-06T05:01:20.001Z,97934.34
2023-03-06T05:06:22.158Z,97880.78
2023-03-06T05:11:24.472Z,97931.66
2023-03-06T05:16:27.036Z,97874.91
2023-03-06T05:21:29.315Z,97950.16
2023-03-06T05:26:31.670Z,97862.75
2023-03-06T05:31:33.866Z,97865.31
2023-03-06T05:36:36.430Z,97880.50
2023-03-06T05:41:38.730Z,97880.94
2023-03-06T05:46:41.140Z,97915.91
2023-03-06T05:51:43.490Z,97946.44
2023-03-06T05:56:45.740Z,97845.56
2023-03-06T06:01:47.983Z,97868.59
2023-03-06T06:06:59.781Z,97892.00
2023-03-06T06:12:03.915Z,97860.34
2023-03-06T06:17:06.467Z,97898.66
2023-03-06T06:22:08.957Z,97857.28
2023-03-06T06:27:11.265Z,97921.03
2023-03-06T06:32:13.464Z,97903.66
2023-03-06T06:37:16.310Z,97905.66
2023-03-06T06:42:32.970Z,97890.28
2023-03-06T06:47:41.527Z,97892.34
2023-03-06T06:52:44.005Z,97953.84
2023-03-06T06:57:46.293Z,97934.78
2023-03-06T07:02:51.407Z,97915.72
2023-03-06T07:07:53.747Z,97926.63
2023-03-06T07:12:56.559Z,98011.38
2023-03-06T07:17:58.843Z,98008.78
2023-03-06T07:23:01.110Z,98068.09
2023-03-06T07:28:03.318Z,97972.22
2023-03-06T07:33:05.531Z,98080.50
2023-03-06T07:38:07.800Z,98030.44
2023-03-06T07:43:19.106Z,98039.69
2023-03-06T07:48:30.918Z,98040.69
2023-03-06T07:53:34.059Z,98004.97
2023-03-06T07:58:38.182Z,98080.94
2023-03-06T08:03:40.525Z,98064.00
2023-03-06T08:08:45.295Z,98061.84
2023-03-06T08:13:48.835Z,98077.28
2023-03-06T08:18:51.490Z,98069.44
2023-03-06T08:23:54.225Z,98116.66
2023-03-06T08:28:59.688Z,98086.53
2023-03-06T08:34:06.936Z,98105.75
2023-03-06T08:39:09.874Z,98060.19
2023-03-06T08:44:12.841Z,98100.88
2023-03-06T08:49:15.229Z,98116.41
2023-03-06T08:54:17.538Z,98133.16
2023-03-06T08:59:19.800Z,98117.19
2023-03-06T09:04:22.075Z,98201.34
2023-03-06T09:09:24.247Z,98180.53
2023-03-06T09:14:26.659Z,98090.69
2023-03-06T09:19:28.976Z,98147.38
2023-03-06T09:24:31.345Z,98190.06
2023-03-06T09:29:33.630Z,98213.56
2023-03-06T09:34:36.651Z,98187.72
2023-03-06T09:39:38.982Z,98181.28
2023-03-06T09:44:42.996Z,98146.50
2023-03-06T09:49:51.674Z,98208.94
2023-03-06T09:55:11.752Z,98098.44
2023-03-06T10:00:19.417Z,98144.41
2023-03-06T10:05:27.759Z,98177.19
2023-03-06T10:10:47.296Z,98144.09
2023-03-06T10:15:50.632Z,98111.34
2023-03-06T10:21:04.705Z,98168.31
2023-03-06T10:26:25.881Z,98118.63
2023-03-06T10:31:29.270Z,98086.25
2023-03-06T10:36:31.653Z,98142.44
2023-03-06T10:41:36.720Z,98178.97
2023-03-06T10:46:48.930Z,98210.94
2023-03-06T10:52:09.977Z,98161.69
2023-03-06T10:57:28.750Z,98144.28
2023-03-06T11:02:38.699Z,98258.03
2023-03-06T11:08:01.451Z,98169.19
2023-03-06T11:13:23.775Z,98160.81
2023-03-06T11:18:42.977Z,98204.19
2023-03-06T11:23:50.095Z,98151.88
2023-03-06T11:30:01.783Z,98164.94
2023-03-06T11:35:20.402Z,98210.63
2023-03-06T11:40:43.229Z,98209.75
2023-03-06T11:46:27.770Z,98172.69
2023-03-06T11:51:41.968Z,98268.97
2023-03-06T11:57:05.247Z,98229.00
2023-03-06T12:02:39.747Z,98131.00
2023-03-06T12:07:57.034Z,98168.59
2023-03-06T12:18:48.099Z,98149.03
2023-03-06T12:24:37.422Z,98173.19
2023-03-06T12:30:29.197Z,98166.00
2023-03-06T12:36:00.592Z,98234.00
2023-03-06T12:41:27.774Z,98215.91
2023-03-06T12:46:30.591Z,98186.25
2023-03-06T12:51:34.226Z,98220.59
2023-03-06T12:56:36.700Z,98165.34
2023-03-06T13:02:16.074Z,98134.06
2023-03-06T13:07:42.444Z,98184.41
2023-03-06T13:13:10.050Z,98138.22
2023-03-06T13:18:24.410Z,98137.16
2023-03-06T13:23:32.788Z,98141.22
2023-03-06T13:28:49.917Z,98164.09
2023-03-06T13:34:02.197Z,98183.41
2023-03-06T13:39:10.136Z,98130.84
2023-03-06T13:44:24.670Z,98095.53
2023-03-06T13:49:28.116Z,98109.69
2023-03-06T13:55:06.248Z,98144.41
2023-03-06T14:00:32.068Z,98083.88
2023-03-06T14:05:50.245Z,98134.94
2023-03-06T14:11:07.139Z,98137.59
2023-03-06T14:16:24.910Z,98129.44
2023-03-06T14:21:56.042Z,98093.97
2023-03-06T14:26:58.379Z,98088.44
2023-03-06T14:32:02.751Z,98144.28
2023-03-06T14:37:07.984Z,98113.53
2023-03-06T14:42:29.204Z,98060.00
2023-03-06T14:47:36.850Z,98086.63
2023-03-06T14:52:39.293Z,98078.22
2023-03-06T14:57:41.631Z,98097.84
2023-03-06T15:02:45.611Z,98061.31
2023-03-06T15:07:48.405Z,98067.47
2023-03-06T15:12:50.800Z,98082.06
2023-03-06T15:17:53.598Z,98058.19
2023-03-06T15:22:55.853Z,98104.22
2023-03-06T15:28:04.833Z,98048.31
2023-03-06T15:33:24.410Z,98016.81
2023-03-06T15:38:34.681Z,97996.44
2023-03-06T15:43:40.878Z,98039.78
2023-03-06T15:49:03.406Z,98002.00
2023-03-06T15:54:12.400Z,97985.31
2023-03-06T15:59:41.938Z,97977.41
2023-03-06T16:04:45.145Z,98006.66
2023-03-06T16:09:48.648Z,97983.44
2023-03-06T16:14:50.827Z,97963.03
2023-03-06T16:19:53.161Z,98014.47
2023-03-06T16:24:55.339Z,97952.75
2023-03-06T16:29:57.440Z,98000.59
2023-03-06T16:34:59.550Z,97974.66
2023-03-06T16:40:01.798Z,97985.34
2023-03-06T16:45:04.443Z,97945.84
2023-03-06T16:50:09.904Z,97988.34
2023-03-06T16:55:12.015Z,97988.25
2023-03-06T17:00:16.026Z,97952.84
2023-03-06T17:05:19.130Z,97962.50
2023-03-06T17:10:26.179Z,98023.94
2023-03-06T17:15:28.368Z,98051.97
2023-03-06T17:20:30.687Z,97991.31
2023-03-06T17:25:35.147Z,97993.72
2023-03-06T17:30:37.652Z,97962.06
2023-03-06T17:35:39.828Z,98003.03
2023-03-06T17:40:41.989Z,97987.16
2023-03-06T17:45:45.538Z,97975.81
2023-03-06T17:50:55.419Z,97990.94
2023-03-06T17:56:00.815Z,98031.84
2023-03-06T18:01:22.418Z,98023.41
2023-03-06T18:06:27.651Z,97994.81
2023-03-06T18:11:30.648Z,97951.06
2023-03-06T18:16:34.286Z,98001.00
2023-03-06T18:21:36.670Z,98017.56
2023-03-06T18:26:42.351Z,97960.00
2023-03-06T18:31:46.019Z,97963.56
2023-03-06T18:36:53.370Z,97984.34
2023-03-06T18:41:56.617Z,97993.97
2023-03-06T18:46:58.786Z,97986.00
2023-03-06T18:52:00.927Z,97961.28
2023-03-06T18:57:03.103Z,97996.09
2023-03-06T19:02:05.461Z,97946.53
2023-03-06T19:07:07.759Z,97960.50
2023-03-06T19:12:10.030Z,97946.16
2023-03-06T19:17:12.553Z,97962.88
2023-03-06T19:22:14.850Z,97981.75
2023-03-06T19:27:17.103Z,97953.47
2023-03-06T19:32:19.474Z,97979.81
2023-03-06T19:37:21.818Z,97946.69
2023-03-06T19:42:23.954Z,97960.56
2023-03-06T19:47:26.183Z,97939.22
2023-03-06T19:52:28.354Z,97966.56
2023-03-06T19:57:30.620Z,97980.34
2023-03-06T20:02:32.855Z,97936.41
2023-03-06T20:07:36.124Z,97941.09
2023-03-06T20:12:38.254Z,97957.63
2023-03-06T20:17:40.804Z,97913.22
2023-03-06T20:22:43.320Z,97906.63
2023-03-06T20:27:45.441Z,97907.41
2023-03-06T20:32:47.712Z,97910.84
2023-03-06T20:37:49.852Z,97886.34
2023-03-06T20:42:51.962Z,97881.22
2023-03-06T20:47:56.194Z,97901.16
2023-03-06T20:52:58.906Z,97890.13
2023-03-06T20:58:01.006Z,97909.66
2023-03-06T21:03:03.302Z,97923.94
2023-03-06T21:08:05.798Z,97913.88
2023-03-06T21:13:08.136Z,97894.41
2023-03-06T21:18:11.378Z,97886.25
2023-03-06T21:23:13.580Z,97927.69
2023-03-06T21:28:17.994Z,97895.53
2023-03-06T21:33:20.223Z,97874.88
2023-03-06T21:38:22.492Z,97878.97
2023-03-06T21:43:24.661Z,97912.06
2023-03-06T21:48:26.773Z,97876.50
2023-03-06T21:53:28.860Z,97869.09
2023-03-06T21:58:31.560Z,97909.75
2023-03-06T22:03:33.710Z,97901.53
2023-03-06T22:08:36.005Z,97873.09
2023-03-06T22:13:39.003Z,97918.59
2023-03-06T22:18:45.143Z,97841.78
2023-03-06T22:23:52.548Z,97900.63
2023-03-06T22:28:54.842Z,97855.31
2023-03-06T22:34:01.733Z,97847.50
2023-03-06T22:39:04.588Z,97832.47
2023-03-06T22:44:06.991Z,97826.06
2023-03-06T22:49:12.018Z,97863.84
2023-03-06T22:54:14.247Z,97868.06
2023-03-06T22:59:16.477Z,97851.91
2023-03-06T23:04:18.637Z,97853.06
2023-03-06T23:09:23.207Z,97871.34
2023-03-06T23:14:46.716Z,97846.19
2023-03-06T23:20:10.171Z,97804.97
2023-03-06T23:25:30.844Z,97834.66
2023-03-06T23:30:33.077Z,97836.31
2023-03-06T23:35:37.765Z,97811.41
2023-03-06T23:40:40.454Z,97815.00
2023-03-06T23:45:51.348Z,97860.44
2023-03-06T23:50:54.266Z,97798.44
2023-03-06T23:55:56.438Z,97821.91
